createdAt,value
2023-04-03T00:00:17.734Z,0
2023-04-03T00:01:34.023Z,0
2023-04-03T00:02:50.318Z,0
2023-04-03T00:04:06.620Z,0
2023-04-03T00:05:22.922Z,0
2023-04-03T00:06:39.213Z,0
2023-04-03T00:07:55.501Z,0
2023-04-03T00:09:11.788Z,0
2023-04-03T00:10:28.084Z,0
2023-04-03T00:11:44.375Z,0
2023-04-03T00:12:59.699Z,0
2023-04-03T00:14:15.017Z,0
2023-04-03T00:15:30.333Z,0
2023-04-03T00:16:45.646Z,0
2023-04-03T00:18:01.922Z,0
2023-04-03T00:19:18.224Z,0
2023-04-03T00:20:34.517Z,0
2023-04-03T00:21:50.828Z,0
2023-04-03T00:23:07.093Z,0
2023-04-03T00:24:23.389Z,0
2023-04-03T00:25:39.697Z,0
2023-04-03T00:26:55.981Z,0
2023-04-03T00:28:12.284Z,0
2023-04-03T00:29:28.575Z,0
2023-04-03T00:30:44.864Z,0
2023-04-03T00:32:01.162Z,0
2023-04-03T00:33:16.481Z,0
2023-04-03T00:34:32.761Z,0
2023-04-03T00:35:49.054Z,0
2023-04-03T00:37:05.356Z,0
2023-04-03T00:38:21.644Z,0
2023-04-03T00:39:37.955Z,0
2023-04-03T00:40:54.244Z,0
2023-04-03T00:42:09.551Z,0
2023-04-03T00:43:24.860Z,0
2023-04-03T00:44:40.174Z,0
2023-04-03T00:45:55.479Z,0
2023-04-03T00:47:11.783Z,0
2023-04-03T00:48:28.086Z,0
2023-04-03T00:49:44.375Z,0
2023-04-03T00:51:00.668Z,0
2023-04-03T00:52:16.960Z,0
2023-04-03T00:53:33.238Z,0
2023-04-03T00:54:48.552Z,0
2023-04-03T00:56:03.872Z,0
2023-04-03T00:57:20.179Z,0
2023-04-03T00:58:36.451Z,0
2023-04-03T00:59:52.758Z,0
2023-04-03T01:01:09.051Z,0
2023-04-03T01:02:25.346Z,0
2023-04-03T01:03:41.637Z,0
2023-04-03T01:04:57.923Z,0
2023-04-03T01:06:14.221Z,0
2023-04-03T01:07:30.523Z,0
2023-04-03T01:08:46.815Z,0
2023-04-03T01:10:03.116Z,0
2023-04-03T01:11:19.399Z,0
2023-04-03T01:12:34.710Z,0
2023-04-03T01:13:51.020Z,0
2023-04-03T01:15:07.291Z,0
2023-04-03T01:16:23.582Z,0
2023-04-03T01:17:39.885Z,0
2023-04-03T01:18:56.187Z,0
2023-04-03T01:20:12.473Z,0
2023-04-03T01:21:27.788Z,0
2023-04-03T01:22:43.109Z,0
2023-04-03T01:23:58.413Z,0
2023-04-03T01:25:13.730Z,0
2023-04-03T01:26:30.013Z,0
2023-04-03T01:27:46.308Z,0
2023-04-03T01:29:02.597Z,0
2023-04-03T01:30:18.898Z,0
2023-04-03T01:31:35.199Z,0
2023-04-03T01:32:51.506Z,0
2023-04-03T01:34:07.775Z,0
2023-04-03T01:35:24.068Z,0
2023-04-03T01:36:40.363Z,0
2023-04-03T01:37:56.674Z,0
2023-04-03T01:39:12.949Z,0
2023-04-03T01:40:29.243Z,0
2023-04-03T01:41:44.565Z,0
2023-04-03T01:43:00.876Z,0
2023-04-03T01:44:17.153Z,0
2023-04-03T01:45:33.451Z,0
2023-04-03T01:46:49.731Z,0
2023-04-03T01:48:06.033Z,0
2023-04-03T01:49:22.340Z,0
2023-04-03T01:50:37.632Z,0
2023-04-03T01:51:52.943Z,0
2023-04-03T01:53:09.253Z,0
2023-04-03T01:54:25.535Z,0
2023-04-03T01:55:41.829Z,0
2023-04-03T01:56:58.134Z,0
2023-04-03T01:58:14.415Z,0
2023-04-03T01:59:30.731Z,0
2023-04-03T02:00:47.029Z,0
2023-04-03T02:02:03.297Z,0
2023-04-03T02:03:19.000Z,0
2023-04-03T02:04:35.893Z,0
2023-04-03T02:05:52.201Z,0
2023-04-03T02:08:24.768Z,0
2023-04-03T02:09:40.091Z,0
2023-04-03T02:10:56.370Z,0
2023-04-03T02:12:12.679Z,0
2023-04-03T02:13:28.963Z,0
2023-04-03T02:14:45.245Z,0
2023-04-03T02:16:01.556Z,0
2023-04-03T02:18:34.140Z,0
2023-04-03T02:19:49.457Z,0
2023-04-03T02:21:04.760Z,0
2023-04-03T02:22:20.075Z,0
2023-04-03T02:23:35.380Z,0
2023-04-03T02:24:50.694Z,0
2023-04-03T02:26:06.024Z,0
2023-04-03T02:27:22.307Z,0
2023-04-03T02:28:38.611Z,0
2023-04-03T02:29:54.887Z,0
2023-04-03T02:31:11.193Z,0
2023-04-03T02:32:27.496Z,0
2023-04-03T02:33:43.767Z,0
2023-04-03T02:35:00.070Z,0
2023-04-03T02:36:16.360Z,0
2023-04-03T02:37:32.673Z,0
2023-04-03T02:38:48.953Z,0
2023-04-03T02:40:05.243Z,0
2023-04-03T02:41:21.541Z,0
2023-04-03T02:42:36.853Z,0
2023-04-03T02:43:53.144Z,0
2023-04-03T02:45:09.441Z,0
2023-04-03T02:46:25.741Z,0
2023-04-03T02:47:42.022Z,0
2023-04-03T02:48:58.320Z,0
2023-04-03T02:50:14.629Z,0
2023-04-03T02:51:29.945Z,0
2023-04-03T02:52:45.239Z,0
2023-04-03T02:54:01.539Z,0
2023-04-03T02:55:17.837Z,0
2023-04-03T02:56:34.128Z,0
2023-04-03T02:57:50.404Z,0
2023-04-03T02:59:06.702Z,0
2023-04-03T03:00:22.994Z,0
2023-04-03T03:01:39.311Z,0
2023-04-03T03:02:55.598Z,0
2023-04-03T03:04:11.889Z,0
2023-04-03T03:05:28.182Z,0
2023-04-03T03:06:44.473Z,0
2023-04-03T03:08:00.775Z,0
2023-04-03T03:09:16.080Z,0
2023-04-03T03:10:32.369Z,0
2023-04-03T03:11:48.681Z,0
2023-04-03T03:13:04.961Z,0
2023-04-03T03:14:21.251Z,0
2023-04-03T03:15:37.550Z,0
2023-04-03T03:16:53.832Z,0
2023-04-03T03:18:09.160Z,0
2023-04-03T03:19:24.474Z,0
2023-04-03T03:20:39.791Z,0
2023-04-03T03:21:55.087Z,0
2023-04-03T03:23:10.407Z,0
2023-04-03T03:24:25.721Z,0
2023-04-03T03:25:42.021Z,0
2023-04-03T03:26:58.303Z,0
2023-04-03T03:28:14.608Z,0
2023-04-03T03:29:30.906Z,0
2023-04-03T03:30:47.183Z,0
2023-04-03T03:32:03.473Z,0
2023-04-03T03:33:19.778Z,0
2023-04-03T03:34:36.067Z,0
2023-04-03T03:35:52.374Z,0
2023-04-03T03:37:08.664Z,0
2023-04-03T03:38:24.960Z,0
2023-04-03T03:39:41.251Z,0
2023-04-03T03:40:56.564Z,0
2023-04-03T03:42:12.852Z,0
2023-04-03T03:43:29.142Z,0
2023-04-03T03:44:45.439Z,0
2023-04-03T03:46:01.731Z,0
2023-04-03T03:47:18.032Z,0
2023-04-03T03:48:34.335Z,0
2023-04-03T03:49:49.641Z,0
2023-04-03T03:51:04.957Z,0
2023-04-03T03:52:21.246Z,0
2023-04-03T03:53:37.553Z,0
2023-04-03T03:54:53.831Z,0
2023-04-03T03:56:10.138Z,0
2023-04-03T03:57:26.424Z,0
2023-04-03T03:58:42.712Z,0
2023-04-03T03:59:59.018Z,0
2023-04-03T04:01:15.302Z,0
2023-04-03T04:02:31.608Z,0
2023-04-03T04:03:47.891Z,0
2023-04-03T04:05:04.185Z,0
2023-04-03T04:06:20.468Z,0
2023-04-03T04:07:35.790Z,0
2023-04-03T04:08:52.096Z,0
2023-04-03T04:10:08.392Z,0
2023-04-03T04:11:23.695Z,0
2023-04-03T04:12:39.936Z,1
2023-04-03T04:13:56.224Z,0
2023-04-03T04:15:12.512Z,0
2023-04-03T04:16:27.806Z,1
2023-04-03T04:17:43.042Z,1
2023-04-03T04:18:58.368Z,0
2023-04-03T04:20:13.645Z,2
2023-04-03T04:21:28.890Z,1
2023-04-03T04:22:44.164Z,2
2023-04-03T04:24:00.407Z,1
2023-04-03T04:25:16.636Z,2
2023-04-03T04:26:32.888Z,1
2023-04-03T04:27:49.127Z,1
2023-04-03T04:29:05.351Z,2
2023-04-03T04:30:21.597Z,2
2023-04-03T04:31:37.836Z,3
2023-04-03T04:32:54.078Z,4
2023-04-03T04:34:10.332Z,5
2023-04-03T04:35:26.564Z,5
2023-04-03T04:36:42.810Z,6
2023-04-03T04:37:59.041Z,14
2023-04-03T04:39:14.304Z,13
2023-04-03T04:40:30.534Z,14
2023-04-03T04:41:46.794Z,18
2023-04-03T04:43:03.013Z,23
2023-04-03T04:44:19.266Z,25
2023-04-03T04:45:35.497Z,27
2023-04-03T04:46:51.731Z,37
2023-04-03T04:48:07.008Z,38
2023-04-03T04:49:22.257Z,45
2023-04-03T04:50:37.531Z,54
2023-04-03T04:51:52.774Z,58
2023-04-03T04:53:09.009Z,67
2023-04-03T04:54:25.247Z,77
2023-04-03T04:55:41.498Z,81
2023-04-03T04:56:57.737Z,89
2023-04-03T04:58:13.981Z,99
2023-04-03T04:59:30.216Z,106
2023-04-03T05:00:46.457Z,112
2023-04-03T05:02:02.695Z,117
2023-04-03T05:03:18.941Z,129
2023-04-03T05:04:35.185Z,140
2023-04-03T05:05:51.414Z,150
2023-04-03T05:07:07.660Z,154
2023-04-03T05:08:22.927Z,163
2023-04-03T05:09:39.157Z,172
2023-04-03T05:10:55.395Z,179
2023-04-03T05:12:11.643Z,191
2023-04-03T05:13:27.875Z,196
2023-04-03T05:14:44.123Z,204
2023-04-03T05:16:00.354Z,215
2023-04-03T05:17:15.613Z,220
2023-04-03T05:18:30.879Z,231
2023-04-03T05:19:46.142Z,236
2023-04-03T05:21:01.402Z,248
2023-04-03T05:22:17.635Z,246
2023-04-03T05:23:33.876Z,260
2023-04-03T05:24:50.123Z,267
2023-04-03T05:26:06.360Z,276
2023-04-03T05:27:22.609Z,283
2023-04-03T05:28:38.831Z,291
2023-04-03T05:29:55.077Z,296
2023-04-03T05:31:11.305Z,304
2023-04-03T05:32:27.564Z,312
2023-04-03T05:33:43.805Z,321
2023-04-03T05:35:00.042Z,330
2023-04-03T05:36:16.265Z,333
2023-04-03T05:37:31.546Z,340
2023-04-03T05:38:47.779Z,343
2023-04-03T05:40:04.010Z,345
2023-04-03T05:41:20.260Z,351
2023-04-03T05:42:36.506Z,359
2023-04-03T05:43:52.737Z,364
2023-04-03T05:45:08.970Z,374
2023-04-03T05:46:24.227Z,374
2023-04-03T05:47:39.489Z,386
2023-04-03T05:48:55.744Z,389
2023-04-03T05:50:10.993Z,394
2023-04-03T05:51:26.263Z,396
2023-04-03T05:52:42.493Z,404
2023-04-03T05:53:58.736Z,407
2023-04-03T05:55:14.965Z,417
2023-04-03T05:56:31.201Z,420
2023-04-03T05:57:47.460Z,423
2023-04-03T05:59:03.700Z,426
2023-04-03T06:00:19.921Z,433
2023-04-03T06:01:36.169Z,438
2023-04-03T06:02:52.422Z,446
2023-04-03T06:04:08.658Z,447
2023-04-03T06:05:24.902Z,453
2023-04-03T06:06:41.130Z,457
2023-04-03T06:07:56.382Z,461
2023-04-03T06:09:12.624Z,460
2023-04-03T06:10:28.883Z,465
2023-04-03T06:11:45.105Z,473
2023-04-03T06:13:01.360Z,470
2023-04-03T06:14:17.584Z,476
2023-04-03T06:15:33.821Z,479
2023-04-03T06:16:49.096Z,481
2023-04-03T06:18:05.335Z,490
2023-04-03T06:19:21.585Z,495
2023-04-03T06:20:37.820Z,504
2023-04-03T06:21:54.052Z,505
2023-04-03T06:23:10.293Z,508
2023-04-03T06:24:26.525Z,507
2023-04-03T06:25:41.786Z,513
2023-04-03T06:26:58.020Z,518
2023-04-03T06:28:14.259Z,522
2023-04-03T06:29:30.506Z,519
2023-04-03T06:30:46.746Z,532
2023-04-03T06:32:02.989Z,530
2023-04-03T06:33:19.233Z,535
2023-04-03T06:34:35.467Z,534
2023-04-03T06:35:51.718Z,541
2023-04-03T06:37:07.950Z,543
2023-04-03T06:38:24.185Z,547
2023-04-03T06:39:40.424Z,552
2023-04-03T06:40:56.669Z,545
2023-04-03T06:42:11.924Z,551
2023-04-03T06:43:27.190Z,556
2023-04-03T06:44:42.440Z,550
2023-04-03T06:45:57.707Z,556
2023-04-03T06:47:12.962Z,561
2023-04-03T06:48:28.231Z,570
2023-04-03T06:49:43.480Z,557
2023-04-03T06:50:59.719Z,561
2023-04-03T06:52:14.989Z,566
2023-04-03T06:53:30.233Z,569
2023-04-03T06:54:46.480Z,559
2023-04-03T06:56:02.725Z,578
2023-04-03T06:57:18.973Z,596
2023-04-03T06:58:35.203Z,578
2023-04-03T06:59:51.445Z,572
2023-04-03T07:01:07.678Z,573
2023-04-03T07:02:23.926Z,670
2023-04-03T07:03:40.158Z,493
2023-04-03T07:04:56.406Z,582
2023-04-03T07:06:12.643Z,588
2023-04-03T07:07:28.883Z,587
2023-04-03T07:08:45.122Z,572
2023-04-03T07:10:00.381Z,599
2023-04-03T07:11:16.629Z,610
2023-04-03T07:12:32.858Z,598
2023-04-03T07:13:49.100Z,606
2023-04-03T07:15:05.341Z,604
2023-04-03T07:16:21.575Z,613
2023-04-03T07:17:37.830Z,618
2023-04-03T07:18:53.078Z,610
2023-04-03T07:20:08.333Z,603
2023-04-03T07:21:23.591Z,618
2023-04-03T07:22:38.845Z,619
2023-04-03T07:23:55.089Z,619
2023-04-03T07:25:11.335Z,617
2023-04-03T07:26:27.571Z,607
2023-04-03T07:27:43.802Z,615
2023-04-03T07:29:00.042Z,630
2023-04-03T07:30:16.302Z,633
2023-04-03T07:31:32.527Z,630
2023-04-03T07:32:48.760Z,628
2023-04-03T07:34:05.000Z,634
2023-04-03T07:35:21.246Z,640
2023-04-03T07:36:37.488Z,635
2023-04-03T07:37:53.728Z,632
2023-04-03T07:39:08.983Z,638
2023-04-03T07:40:25.222Z,634
2023-04-03T07:41:41.465Z,642
2023-04-03T07:42:57.709Z,648
2023-04-03T07:44:13.936Z,643
2023-04-03T07:45:30.178Z,639
2023-04-03T07:46:46.416Z,649
2023-04-03T07:48:01.698Z,649
2023-04-03T07:49:16.949Z,653
2023-04-03T07:50:33.185Z,636
2023-04-03T07:51:49.425Z,645
2023-04-03T07:53:05.664Z,651
2023-04-03T07:54:21.897Z,660
2023-04-03T07:55:38.151Z,650
2023-04-03T07:56:54.380Z,654
2023-04-03T07:58:10.628Z,655
2023-04-03T07:59:26.867Z,650
2023-04-03T08:00:43.103Z,649
2023-04-03T08:01:59.348Z,658
2023-04-03T08:03:15.597Z,660
2023-04-03T08:04:31.830Z,632
2023-04-03T08:05:47.081Z,680
2023-04-03T08:07:03.316Z,720
2023-04-03T08:08:19.560Z,698
2023-04-03T08:09:35.813Z,678
2023-04-03T08:10:52.048Z,681
2023-04-03T08:12:08.282Z,614
2023-04-03T08:13:24.521Z,624
2023-04-03T08:14:39.776Z,1032
2023-04-03T08:15:55.022Z,532
2023-04-03T08:17:11.284Z,795
2023-04-03T08:18:27.512Z,1178
2023-04-03T08:19:43.753Z,647
2023-04-03T08:20:59.997Z,663
2023-04-03T08:22:16.229Z,688
2023-04-03T08:23:32.476Z,456
2023-04-03T08:24:48.709Z,1232
2023-04-03T08:26:03.969Z,351
2023-04-03T08:27:20.205Z,1012
2023-04-03T08:28:36.456Z,301
2023-04-03T08:29:52.704Z,748
2023-04-03T08:31:08.927Z,822
2023-04-03T08:32:25.171Z,755
2023-04-03T08:33:41.415Z,756
2023-04-03T08:34:57.659Z,926
2023-04-03T08:36:13.907Z,883
2023-04-03T08:37:30.147Z,898
2023-04-03T08:38:46.361Z,840
2023-04-03T08:40:02.608Z,786
2023-04-03T08:41:17.872Z,745
2023-04-03T08:42:33.133Z,950
2023-04-03T08:43:49.366Z,753
2023-04-03T08:45:05.611Z,977
2023-04-03T08:46:21.842Z,1022
2023-04-03T08:47:38.079Z,1028
2023-04-03T08:48:54.346Z,1023
2023-04-03T08:50:10.574Z,1527
2023-04-03T08:51:26.815Z,458
2023-04-03T08:52:43.050Z,1603
2023-04-03T08:53:59.303Z,440
2023-04-03T08:55:15.527Z,1515
2023-04-03T08:56:31.760Z,804
2023-04-03T08:57:48.008Z,688
2023-04-03T08:59:03.263Z,1333
2023-04-03T09:00:19.511Z,1148
2023-04-03T09:01:35.759Z,368
2023-04-03T09:02:51.989Z,1022
2023-04-03T09:04:08.223Z,1025
2023-04-03T09:05:24.455Z,1276
2023-04-03T09:06:40.706Z,638
2023-04-03T09:07:55.971Z,1421
2023-04-03T09:09:11.225Z,368
2023-04-03T09:10:26.494Z,927
2023-04-03T09:11:41.738Z,932
2023-04-03T09:12:57.982Z,911
2023-04-03T09:14:14.225Z,965
2023-04-03T09:15:30.464Z,934
2023-04-03T09:16:46.698Z,968
2023-04-03T09:18:02.946Z,932
2023-04-03T09:19:19.177Z,932
2023-04-03T09:20:35.415Z,956
2023-04-03T09:21:51.644Z,929
2023-04-03T09:23:07.895Z,923
2023-04-03T09:24:24.137Z,931
2023-04-03T09:25:40.371Z,938
2023-04-03T09:26:56.617Z,918
2023-04-03T09:28:11.862Z,917
2023-04-03T09:29:28.121Z,947
2023-04-03T09:30:44.339Z,1010
2023-04-03T09:32:00.587Z,930
2023-04-03T09:33:16.831Z,1082
2023-04-03T09:34:33.061Z,754
2023-04-03T09:35:49.297Z,1023
2023-04-03T09:37:04.566Z,1500
2023-04-03T09:38:19.838Z,380
2023-04-03T09:39:35.099Z,1063
2023-04-03T09:40:50.336Z,1817
2023-04-03T09:42:05.606Z,399
2023-04-03T09:43:20.871Z,1284
2023-04-03T09:44:37.103Z,1111
2023-04-03T09:45:53.354Z,809
2023-04-03T09:47:09.577Z,1121
2023-04-03T09:48:25.814Z,1094
2023-04-03T09:49:42.053Z,1042
2023-04-03T09:50:58.295Z,1147
2023-04-03T09:52:14.527Z,840
2023-04-03T09:53:30.773Z,1185
2023-04-03T09:54:47.012Z,1101
2023-04-03T09:56:03.256Z,1606
2023-04-03T09:57:19.493Z,1318
2023-04-03T09:58:35.734Z,1385
2023-04-03T09:59:50.992Z,472
2023-04-03T10:01:07.231Z,1310
2023-04-03T10:02:23.478Z,1205
2023-04-03T10:03:39.722Z,1186
2023-04-03T10:04:55.967Z,1105
2023-04-03T10:06:12.181Z,856
2023-04-03T10:07:28.431Z,688
2023-04-03T10:08:43.701Z,1813
2023-04-03T10:09:58.953Z,2188
2023-04-03T10:11:14.207Z,2278
2023-04-03T10:12:29.450Z,2152
2023-04-03T10:13:45.710Z,1582
2023-04-03T10:15:01.928Z,1784
2023-04-03T10:16:18.193Z,3960
2023-04-03T10:17:34.433Z,4440
2023-04-03T10:18:50.664Z,5124
2023-04-03T10:20:06.918Z,4709
2023-04-03T10:21:23.149Z,6161
2023-04-03T10:22:39.398Z,2586
2023-04-03T10:23:55.612Z,3481
2023-04-03T10:25:11.859Z,6185
2023-04-03T10:26:28.097Z,2247
2023-04-03T10:27:44.333Z,2558
2023-04-03T10:28:59.591Z,1482
2023-04-03T10:30:15.845Z,1313
2023-04-03T10:31:32.090Z,1142
2023-04-03T10:32:48.335Z,1414
2023-04-03T10:34:04.569Z,828
2023-04-03T10:35:20.796Z,4183
2023-04-03T10:36:37.047Z,5478
2023-04-03T10:37:52.296Z,905
2023-04-03T10:39:07.564Z,4828
2023-04-03T10:40:23.786Z,1902
2023-04-03T10:41:40.048Z,1158
2023-04-03T10:42:56.294Z,1920
2023-04-03T10:44:12.524Z,1858
2023-04-03T10:45:28.766Z,748
2023-04-03T10:46:45.007Z,1458
2023-04-03T10:48:01.242Z,4208
2023-04-03T10:49:17.485Z,4097
2023-04-03T10:50:33.719Z,5577
2023-04-03T10:51:49.956Z,2864
2023-04-03T10:53:06.194Z,1560
2023-04-03T10:54:22.454Z,1607
2023-04-03T10:55:37.682Z,1393
2023-04-03T10:56:53.938Z,1311
2023-04-03T10:58:10.172Z,1275
2023-04-03T10:59:26.404Z,1246
2023-04-03T11:00:42.639Z,1101
2023-04-03T11:01:58.904Z,545
2023-04-03T11:03:15.131Z,1187
2023-04-03T11:04:31.385Z,3481
2023-04-03T11:05:46.622Z,1168
2023-04-03T11:07:01.889Z,1235
2023-04-03T11:08:17.154Z,1328
2023-04-03T11:09:32.418Z,717
2023-04-03T11:10:47.685Z,1161
2023-04-03T11:12:02.914Z,6812
2023-04-03T11:13:19.177Z,1661
2023-04-03T11:14:35.418Z,2470
2023-04-03T11:15:51.653Z,5305
2023-04-03T11:17:07.897Z,1840
2023-04-03T11:18:24.137Z,1029
2023-04-03T11:19:40.377Z,7882
2023-04-03T11:20:56.621Z,4731
2023-04-03T11:22:12.841Z,1835
2023-04-03T11:23:29.085Z,2046
2023-04-03T11:24:45.320Z,1628
2023-04-03T11:26:01.555Z,1202
2023-04-03T11:27:17.803Z,1964
2023-04-03T11:28:33.043Z,1554
2023-04-03T11:29:49.294Z,1519
2023-04-03T11:31:05.546Z,1508
2023-04-03T11:32:21.789Z,1478
2023-04-03T11:33:38.026Z,1476
2023-04-03T11:34:54.260Z,1497
2023-04-03T11:36:10.500Z,1275
2023-04-03T11:37:25.756Z,707
2023-04-03T11:38:41.014Z,2905
2023-04-03T11:39:56.275Z,4296
2023-04-03T11:41:11.536Z,2099
2023-04-03T11:42:27.770Z,1681
2023-04-03T11:43:44.014Z,1502
2023-04-03T11:45:00.240Z,1441
2023-04-03T11:46:16.488Z,1354
2023-04-03T11:47:32.742Z,960
2023-04-03T11:48:48.960Z,1188
2023-04-03T11:50:05.225Z,6024
2023-04-03T11:51:21.450Z,8006
2023-04-03T11:52:37.696Z,7086
2023-04-03T11:53:53.913Z,2128
2023-04-03T11:55:10.169Z,2256
2023-04-03T11:56:26.419Z,2016
2023-04-03T11:57:41.665Z,1771
2023-04-03T11:58:57.913Z,1676
2023-04-03T12:00:14.136Z,1632
2023-04-03T12:01:30.378Z,941
2023-04-03T12:02:46.628Z,1948
2023-04-03T12:04:02.874Z,6657
2023-04-03T12:05:19.098Z,6529
2023-04-03T12:06:34.365Z,6436
2023-04-03T12:07:49.628Z,6744
2023-04-03T12:09:05.849Z,7219
2023-04-03T12:10:22.105Z,7514
2023-04-03T12:11:38.344Z,8361
2023-04-03T12:12:54.575Z,3186
2023-04-03T12:14:10.831Z,2646
2023-04-03T12:15:27.044Z,1961
2023-04-03T12:16:43.292Z,1649
2023-04-03T12:17:59.543Z,1479
2023-04-03T12:19:15.782Z,1416
2023-04-03T12:20:32.014Z,1331
2023-04-03T12:21:48.259Z,911
2023-04-03T12:23:04.495Z,1273
2023-04-03T12:24:19.751Z,6725
2023-04-03T12:25:35.986Z,9103
2023-04-03T12:26:52.237Z,1809
2023-04-03T12:28:08.468Z,1711
2023-04-03T12:29:24.719Z,1521
2023-04-03T12:30:40.942Z,1479
2023-04-03T12:31:57.190Z,1506
2023-04-03T12:33:12.438Z,1645
2023-04-03T12:34:27.709Z,1532
2023-04-03T12:35:43.947Z,1327
2023-04-03T12:37:00.193Z,1231
2023-04-03T12:38:16.426Z,1240
2023-04-03T12:39:32.669Z,1156
2023-04-03T12:40:47.938Z,1241
2023-04-03T12:42:04.171Z,1402
2023-04-03T12:43:20.422Z,1431
2023-04-03T12:44:36.652Z,1400
2023-04-03T12:45:52.895Z,1337
2023-04-03T12:47:09.124Z,1314
2023-04-03T12:48:25.377Z,1282
2023-04-03T12:49:41.606Z,1304
2023-04-03T12:50:57.847Z,1262
2023-04-03T12:52:14.099Z,1676
2023-04-03T12:53:30.320Z,1427
2023-04-03T12:54:46.554Z,1197
2023-04-03T12:56:02.806Z,1076
2023-04-03T12:57:18.062Z,1052
2023-04-03T12:58:34.295Z,1118
2023-04-03T12:59:50.542Z,1396
2023-04-03T13:01:05.808Z,1697
2023-04-03T13:02:21.044Z,1896
2023-04-03T13:03:36.322Z,1030
2023-04-03T13:04:51.575Z,1778
2023-04-03T13:06:07.819Z,2779
2023-04-03T13:07:24.062Z,12666
2023-04-03T13:08:40.299Z,3350
2023-04-03T13:09:56.523Z,5943
2023-04-03T13:11:12.775Z,1517
2023-04-03T13:12:29.012Z,1232
2023-04-03T13:13:45.251Z,1108
2023-04-03T13:15:01.495Z,1022
2023-04-03T13:16:17.731Z,929
2023-04-03T13:17:33.963Z,840
2023-04-03T13:18:50.214Z,774
2023-04-03T13:20:06.467Z,740
2023-04-03T13:21:21.717Z,721
2023-04-03T13:22:37.946Z,715
2023-04-03T13:23:54.190Z,687
2023-04-03T13:25:10.416Z,654
2023-04-03T13:26:26.681Z,849
2023-04-03T13:27:42.909Z,1008
2023-04-03T13:28:59.145Z,1101
2023-04-03T13:30:14.407Z,1049
2023-04-03T13:31:29.653Z,1003
2023-04-03T13:32:45.894Z,929
2023-04-03T13:34:02.139Z,831
2023-04-03T13:35:18.390Z,746
2023-04-03T13:36:34.618Z,708
2023-04-03T13:37:50.879Z,686
2023-04-03T13:39:07.106Z,689
2023-04-03T13:40:23.337Z,703
2023-04-03T13:41:39.567Z,761
2023-04-03T13:42:55.826Z,842
2023-04-03T13:44:12.055Z,901
2023-04-03T13:45:28.295Z,926
2023-04-03T13:46:44.528Z,889
2023-04-03T13:47:59.785Z,795
2023-04-03T13:49:16.031Z,719
2023-04-03T13:50:32.271Z,664
2023-04-03T13:51:48.520Z,644
2023-04-03T13:53:04.740Z,614
2023-04-03T13:54:20.993Z,580
2023-04-03T13:55:37.228Z,557
2023-04-03T13:56:52.509Z,550
2023-04-03T13:58:07.746Z,544
2023-04-03T13:59:23.005Z,543
2023-04-03T14:00:38.263Z,550
2023-04-03T14:01:53.536Z,558
2023-04-03T14:03:08.787Z,597
2023-04-03T14:04:24.056Z,583
2023-04-03T14:05:39.293Z,625
2023-04-03T14:06:55.540Z,649
2023-04-03T14:08:11.781Z,679
2023-04-03T14:09:28.015Z,707
2023-04-03T14:10:44.269Z,726
2023-04-03T14:12:00.512Z,744
2023-04-03T14:13:16.736Z,770
2023-04-03T14:14:32.977Z,810
2023-04-03T14:15:49.221Z,848
2023-04-03T14:17:05.454Z,862
2023-04-03T14:18:21.683Z,906
2023-04-03T14:19:37.936Z,949
2023-04-03T14:20:54.183Z,900
2023-04-03T14:22:09.427Z,869
2023-04-03T14:23:25.675Z,853
2023-04-03T14:24:41.899Z,778
2023-04-03T14:25:58.145Z,700
2023-04-03T14:27:14.390Z,632
2023-04-03T14:28:30.638Z,584
2023-04-03T14:29:46.862Z,556
2023-04-03T14:31:02.132Z,560
2023-04-03T14:32:17.400Z,577
2023-04-03T14:33:32.652Z,629
2023-04-03T14:34:47.914Z,656
2023-04-03T14:36:04.143Z,658
2023-04-03T14:37:20.383Z,658
2023-04-03T14:38:36.615Z,654
2023-04-03T14:39:52.849Z,635
2023-04-03T14:41:09.107Z,629
2023-04-03T14:42:25.348Z,631
2023-04-03T14:43:41.591Z,612
2023-04-03T14:44:57.828Z,584
2023-04-03T14:46:14.068Z,559
2023-04-03T14:47:30.291Z,532
2023-04-03T14:48:46.540Z,534
2023-04-03T14:50:02.791Z,535
2023-04-03T14:51:18.021Z,521
2023-04-03T14:52:34.277Z,495
2023-04-03T14:53:50.513Z,476
2023-04-03T14:55:06.750Z,458
2023-04-03T14:56:22.995Z,435
2023-04-03T14:57:39.246Z,416
2023-04-03T14:58:55.468Z,407
2023-04-03T15:00:10.746Z,395
2023-04-03T15:01:25.991Z,390
2023-04-03T15:02:41.249Z,391
2023-04-03T15:03:56.509Z,392
2023-04-03T15:05:12.752Z,393
2023-04-03T15:06:28.971Z,395
2023-04-03T15:07:45.227Z,396
2023-04-03T15:09:01.466Z,402
2023-04-03T15:10:17.703Z,399
2023-04-03T15:11:33.943Z,400
2023-04-03T15:12:50.179Z,408
2023-04-03T15:14:06.423Z,418
2023-04-03T15:15:22.651Z,427
2023-04-03T15:16:38.898Z,442
2023-04-03T15:17:55.131Z,437
2023-04-03T15:19:11.380Z,423
2023-04-03T15:20:26.647Z,406
2023-04-03T15:21:42.889Z,398
2023-04-03T15:22:59.114Z,399
2023-04-03T15:24:15.343Z,417
2023-04-03T15:25:31.598Z,420
2023-04-03T15:26:47.849Z,405
2023-04-03T15:28:04.089Z,384
2023-04-03T15:29:19.332Z,358
2023-04-03T15:30:34.585Z,348
2023-04-03T15:31:50.823Z,334
2023-04-03T15:33:07.080Z,322
2023-04-03T15:34:23.311Z,301
2023-04-03T15:35:39.556Z,293
2023-04-03T15:36:55.785Z,296
2023-04-03T15:38:12.022Z,299
2023-04-03T15:39:28.272Z,297
2023-04-03T15:40:44.519Z,297
2023-04-03T15:42:00.753Z,290
2023-04-03T15:43:17.000Z,280
2023-04-03T15:44:33.231Z,267
2023-04-03T15:45:49.468Z,257
2023-04-03T15:47:04.719Z,252
2023-04-03T15:48:20.962Z,245
2023-04-03T15:49:37.196Z,244
2023-04-03T15:50:53.439Z,238
2023-04-03T15:52:09.684Z,237
2023-04-03T15:54:42.157Z,220
2023-04-03T15:55:58.400Z,210
2023-04-03T15:57:13.658Z,202
2023-04-03T15:58:28.918Z,198
2023-04-03T15:59:44.177Z,197
2023-04-03T16:00:59.435Z,195
2023-04-03T16:02:15.674Z,193
2023-04-03T16:03:30.936Z,196
2023-04-03T16:04:46.186Z,187
2023-04-03T16:06:02.438Z,193
2023-04-03T16:07:18.660Z,195
2023-04-03T16:08:34.909Z,198
2023-04-03T16:09:51.143Z,197
2023-04-03T16:11:07.381Z,199
2023-04-03T16:12:23.637Z,198
2023-04-03T16:13:39.866Z,203
2023-04-03T16:14:56.111Z,217
2023-04-03T16:16:12.353Z,227
2023-04-03T16:17:28.581Z,219
2023-04-03T16:18:44.822Z,212
2023-04-03T16:20:01.075Z,192
2023-04-03T16:21:16.318Z,191
2023-04-03T16:22:32.569Z,186
2023-04-03T16:23:48.803Z,185
2023-04-03T16:25:05.031Z,194
2023-04-03T16:26:21.277Z,197
2023-04-03T16:27:37.513Z,194
2023-04-03T16:28:53.768Z,187
2023-04-03T16:30:09.031Z,179
2023-04-03T16:31:24.274Z,170
2023-04-03T16:32:39.525Z,165
2023-04-03T16:33:54.786Z,161
2023-04-03T16:35:11.043Z,157
2023-04-03T16:36:27.268Z,155
2023-04-03T16:37:43.499Z,148
2023-04-03T16:38:59.740Z,142
2023-04-03T16:40:15.984Z,130
2023-04-03T16:41:32.224Z,124
2023-04-03T16:42:48.482Z,117
2023-04-03T16:44:04.706Z,119
2023-04-03T16:45:20.945Z,115
2023-04-03T16:46:37.200Z,114
2023-04-03T16:47:53.427Z,113
2023-04-03T16:49:09.680Z,126
2023-04-03T16:50:24.925Z,108
2023-04-03T16:51:41.165Z,121
2023-04-03T16:52:57.396Z,120
2023-04-03T16:54:13.643Z,118
2023-04-03T16:55:28.904Z,107
2023-04-03T16:56:45.159Z,113
2023-04-03T16:58:01.392Z,110
2023-04-03T16:59:16.640Z,111
2023-04-03T17:00:32.893Z,108
2023-04-03T17:01:48.136Z,113
2023-04-03T17:03:04.380Z,111
2023-04-03T17:04:20.616Z,108
2023-04-03T17:05:36.855Z,105
2023-04-03T17:06:53.108Z,98
2023-04-03T17:08:09.338Z,92
2023-04-03T17:09:25.581Z,88
2023-04-03T17:10:41.824Z,86
2023-04-03T17:11:58.065Z,84
2023-04-03T17:13:14.310Z,81
2023-04-03T17:14:30.540Z,82
2023-04-03T17:15:46.785Z,74
2023-04-03T17:17:03.022Z,70
2023-04-03T17:18:18.271Z,67
2023-04-03T17:19:34.512Z,66
2023-04-03T17:20:50.749Z,65
2023-04-03T17:22:07.001Z,70
2023-04-03T17:23:23.246Z,68
2023-04-03T17:24:39.479Z,59
2023-04-03T17:25:54.738Z,51
2023-04-03T17:27:10.000Z,48
2023-04-03T17:28:25.246Z,48
2023-04-03T17:29:40.516Z,46
2023-04-03T17:30:55.773Z,43
2023-04-03T17:32:11.027Z,36
2023-04-03T17:33:27.259Z,28
2023-04-03T17:34:43.498Z,32
2023-04-03T17:35:59.731Z,27
2023-04-03T17:37:15.976Z,25
2023-04-03T17:38:32.233Z,25
2023-04-03T17:39:48.468Z,22
2023-04-03T17:41:04.697Z,19
2023-04-03T17:42:20.936Z,16
2023-04-03T17:43:37.183Z,13